Socastee, South Carolina
Current Conditions -  °F | °C
As of 6:45 AM on Thursday 18 Dec 2014 (Local Time) from KMYR Reporting Station
Clear Clear  
Wind Chill: 32°   Ceiling: Unl
Heat Index: 37°   Visibility: 10mi
Dew Point: 36°   Wind: 7mph
Humidity: 93%   Direction: 360°N
Pressure: 30.15"   Gusts: NA
Location:  33.68°N, 79°W
Report Text: KMYR 181145Z 36006KT 10SM CLR 03/02 A3015
Loading
Personal Weather Stations






























Interactive Weather Map New forecast layout! Learn more

10-Day Weather Forecast

Advertisements
Track Severe Weather on mobile